createdAt,value
2022-12-25T00:02:02.538Z,19.68
2022-12-25T00:07:24.229Z,19.66
2022-12-25T00:12:45.971Z,19.63
2022-12-25T00:18:07.677Z,19.61
2022-12-25T00:23:30.361Z,19.60
2022-12-25T00:28:54.038Z,19.57
2022-12-25T00:34:15.820Z,19.54
2022-12-25T00:39:37.626Z,19.52
2022-12-25T00:45:01.609Z,19.51
2022-12-25T00:50:23.363Z,19.48
2022-12-25T00:55:50.269Z,19.47
2022-12-25T01:01:12.092Z,19.45
2022-12-25T01:06:33.844Z,19.43
2022-12-25T01:11:55.704Z,19.43
2022-12-25T01:17:17.396Z,19.40
2022-12-25T01:22:39.154Z,19.38
2022-12-25T01:28:00.887Z,19.36
2022-12-25T01:33:22.766Z,19.34
2022-12-25T01:38:45.455Z,19.36
2022-12-25T01:44:16.054Z,19.33
2022-12-25T01:49:40.497Z,19.31
2022-12-25T01:55:04.341Z,19.30
2022-12-25T02:00:26.070Z,19.28
2022-12-25T02:05:48.177Z,19.24
2022-12-25T02:11:32.925Z,19.25
2022-12-25T02:17:07.351Z,19.23
2022-12-25T02:22:53.574Z,19.22
2022-12-25T02:28:21.866Z,19.18
2022-12-25T02:34:05.113Z,19.19
2022-12-25T02:39:59.645Z,19.17
2022-12-25T02:45:50.991Z,19.16
2022-12-25T02:51:35.619Z,19.13
2022-12-25T02:57:20.797Z,19.13
2022-12-25T03:03:02.938Z,19.10
2022-12-25T03:08:30.753Z,19.10
2022-12-25T03:14:16.635Z,19.07
2022-12-25T03:19:57.114Z,19.06
2022-12-25T03:25:38.728Z,19.04
2022-12-25T03:31:17.348Z,19.05
2022-12-25T03:37:03.380Z,19.03
2022-12-25T03:43:03.682Z,19.01
2022-12-25T03:48:46.435Z,19.00
2022-12-25T03:54:29.964Z,18.98
2022-12-25T04:00:10.263Z,18.97
2022-12-25T04:05:50.596Z,18.95
2022-12-25T04:11:30.672Z,18.94
2022-12-25T04:17:11.220Z,18.92
2022-12-25T04:22:52.414Z,18.90
2022-12-25T04:28:32.405Z,18.90
2022-12-25T04:34:12.724Z,18.88
2022-12-25T04:39:34.626Z,18.86
2022-12-25T04:44:56.344Z,18.86
2022-12-25T04:50:18.193Z,18.86
2022-12-25T04:55:39.931Z,18.85
2022-12-25T05:01:03.621Z,18.84
2022-12-25T05:06:25.305Z,18.83
2022-12-25T05:11:47.122Z,18.81
2022-12-25T05:17:08.785Z,18.81
2022-12-25T05:22:30.524Z,18.80
2022-12-25T05:27:54.156Z,18.79
2022-12-25T05:33:16.013Z,18.77
2022-12-25T05:38:38.067Z,18.77
2022-12-25T05:43:59.769Z,18.75
2022-12-25T05:49:21.481Z,18.74
2022-12-25T05:54:43.326Z,18.73
2022-12-25T06:00:06.407Z,18.73
2022-12-25T06:05:28.170Z,18.72
2022-12-25T06:10:49.865Z,18.70
2022-12-25T06:16:12.980Z,18.70
2022-12-25T06:21:34.756Z,18.68
2022-12-25T06:26:56.471Z,18.67
2022-12-25T06:32:18.192Z,18.66
2022-12-25T06:37:39.946Z,18.65
2022-12-25T06:43:01.791Z,18.68
2022-12-25T06:48:23.573Z,18.76
2022-12-25T06:53:46.077Z,19.13
2022-12-25T06:59:10.255Z,19.60
2022-12-25T07:04:43.122Z,20.06
2022-12-25T07:10:05.143Z,20.33
2022-12-25T07:15:26.881Z,20.46
2022-12-25T07:20:48.556Z,20.49
2022-12-25T07:26:11.738Z,20.47
2022-12-25T07:31:33.482Z,20.38
2022-12-25T07:36:55.246Z,20.28
2022-12-25T07:42:21.732Z,20.19
2022-12-25T07:47:46.528Z,20.08
2022-12-25T07:53:08.491Z,19.99
2022-12-25T07:58:30.892Z,19.88
2022-12-25T08:03:55.113Z,19.80
2022-12-25T08:09:16.876Z,19.69
2022-12-25T08:14:38.689Z,19.61
2022-12-25T08:20:00.408Z,19.53
2022-12-25T08:25:22.212Z,19.50
2022-12-25T08:30:43.903Z,19.46
2022-12-25T08:36:10.281Z,19.44
2022-12-25T08:41:32.321Z,19.44
2022-12-25T08:46:54.034Z,19.54
2022-12-25T08:52:16.645Z,19.82
2022-12-25T08:57:38.339Z,20.11
2022-12-25T09:03:00.261Z,20.38
2022-12-25T09:08:22.335Z,20.60
2022-12-25T09:13:44.432Z,20.78
2022-12-25T09:19:06.172Z,20.88
2022-12-25T09:24:27.937Z,20.89
2022-12-25T09:29:49.908Z,20.90
2022-12-25T09:35:11.763Z,20.95
2022-12-25T09:40:33.598Z,21.00
2022-12-25T09:45:56.579Z,21.09
2022-12-25T09:51:19.096Z,21.15
2022-12-25T09:56:40.822Z,21.25
2022-12-25T10:02:21.421Z,21.31
2022-12-25T10:07:43.455Z,21.36
2022-12-25T10:13:07.872Z,21.32
2022-12-25T10:18:38.903Z,21.22
2022-12-25T10:24:33.417Z,21.07
2022-12-25T10:29:55.192Z,20.86
2022-12-25T10:35:20.243Z,20.72
2022-12-25T10:41:00.370Z,20.59
2022-12-25T10:46:24.552Z,20.45
2022-12-25T10:51:46.280Z,20.34
2022-12-25T10:57:10.931Z,20.22
2022-12-25T11:02:40.974Z,20.13
2022-12-25T11:08:03.744Z,20.04
2022-12-25T11:13:28.201Z,19.96
2022-12-25T11:18:52.601Z,19.90
2022-12-25T11:24:22.531Z,19.84
2022-12-25T11:29:49.409Z,19.79
2022-12-25T11:35:14.237Z,19.74
2022-12-25T11:40:40.537Z,19.64
2022-12-25T11:46:18.559Z,19.56
2022-12-25T11:51:44.056Z,19.53
2022-12-25T11:57:07.309Z,19.60
2022-12-25T12:02:39.842Z,19.68
2022-12-25T12:08:07.278Z,19.77
2022-12-25T12:13:31.946Z,19.80
2022-12-25T12:18:53.685Z,19.80
2022-12-25T12:24:22.471Z,19.84
2022-12-25T12:29:46.196Z,19.85
2022-12-25T12:35:19.160Z,19.88
2022-12-25T12:40:51.206Z,19.87
2022-12-25T12:46:31.607Z,19.83
2022-12-25T12:52:04.867Z,19.77
2022-12-25T12:57:32.977Z,19.67
2022-12-25T13:03:13.372Z,19.62
2022-12-25T13:09:06.724Z,19.56
2022-12-25T13:14:28.556Z,19.49
2022-12-25T13:20:01.203Z,19.46
2022-12-25T13:25:24.147Z,19.40
2022-12-25T13:30:47.291Z,19.34
2022-12-25T13:36:14.311Z,19.33
2022-12-25T13:42:06.115Z,19.35
2022-12-25T13:47:31.294Z,19.38
2022-12-25T13:52:54.670Z,19.42
2022-12-25T13:58:30.401Z,19.49
2022-12-25T14:03:52.557Z,19.52
2022-12-25T14:09:15.333Z,19.56
2022-12-25T14:14:37.587Z,19.61
2022-12-25T14:20:07.570Z,19.64
2022-12-25T14:25:44.113Z,19.65
2022-12-25T14:31:05.877Z,19.63
2022-12-25T14:36:28.056Z,19.63
2022-12-25T14:41:54.351Z,19.60
2022-12-25T14:47:18.668Z,19.51
2022-12-25T14:52:44.752Z,19.46
2022-12-25T14:58:08.262Z,19.40
2022-12-25T15:03:32.944Z,19.36
2022-12-25T15:09:01.176Z,19.32
2022-12-25T15:14:24.200Z,19.28
2022-12-25T15:19:45.965Z,19.24
2022-12-25T15:25:14.290Z,19.31
2022-12-25T15:30:39.421Z,19.46
2022-12-25T15:36:01.284Z,19.63
2022-12-25T15:41:46.369Z,19.83
2022-12-25T15:47:12.436Z,20.01
2022-12-25T15:52:34.143Z,20.13
2022-12-25T15:57:55.921Z,20.27
2022-12-25T16:03:17.719Z,20.47
2022-12-25T16:08:40.127Z,20.69
2022-12-25T16:14:01.841Z,20.83
2022-12-25T16:19:23.599Z,20.92
2022-12-25T16:24:45.655Z,20.86
2022-12-25T16:30:08.189Z,20.82
2022-12-25T16:35:29.964Z,20.85
2022-12-25T16:40:57.264Z,20.86
2022-12-25T16:46:21.732Z,20.81
2022-12-25T16:51:44.217Z,20.73
2022-12-25T16:57:05.967Z,20.67
2022-12-25T17:02:28.009Z,20.59
2022-12-25T17:07:49.909Z,20.50
2022-12-25T17:13:11.733Z,20.43
2022-12-25T17:18:33.450Z,20.38
2022-12-25T17:24:01.681Z,20.34
2022-12-25T17:29:25.276Z,20.29
2022-12-25T17:34:47.351Z,20.23
2022-12-25T17:40:09.672Z,20.20
2022-12-25T17:45:31.391Z,20.17
2022-12-25T17:50:53.113Z,20.16
2022-12-25T17:56:16.590Z,20.13
2022-12-25T18:01:40.144Z,20.11
2022-12-25T18:07:03.513Z,20.09
2022-12-25T18:12:25.268Z,20.08
2022-12-25T18:17:47.173Z,20.05
2022-12-25T18:23:09.425Z,20.05
2022-12-25T18:28:31.346Z,20.02
2022-12-25T18:33:54.095Z,20.01
2022-12-25T18:39:15.868Z,19.96
2022-12-25T18:44:37.686Z,19.97
2022-12-25T18:49:59.446Z,19.99
2022-12-25T18:55:21.467Z,19.99
2022-12-25T19:00:43.259Z,20.01
2022-12-25T19:06:05.234Z,20.01
2022-12-25T19:11:27.079Z,20.03
2022-12-25T19:16:49.317Z,20.02
2022-12-25T19:22:11.128Z,20.03
2022-12-25T19:27:32.872Z,20.03
2022-12-25T19:32:54.596Z,20.04
2022-12-25T19:38:16.517Z,20.04
2022-12-25T19:43:40.301Z,20.05
2022-12-25T19:49:04.514Z,20.01
2022-12-25T19:54:26.463Z,19.97
2022-12-25T19:59:49.624Z,19.97
2022-12-25T20:05:11.658Z,19.98
2022-12-25T20:10:33.406Z,19.99
2022-12-25T20:16:01.103Z,20.02
2022-12-25T20:21:24.306Z,20.01
2022-12-25T20:26:47.907Z,20.03
2022-12-25T20:32:10.532Z,20.08
2022-12-25T20:37:32.378Z,20.14
2022-12-25T20:42:54.085Z,20.20
2022-12-25T20:48:15.769Z,20.24
2022-12-25T20:53:38.039Z,20.28
2022-12-25T20:59:00.730Z,20.32
2022-12-25T21:04:22.496Z,20.34
2022-12-25T21:09:44.438Z,20.37
2022-12-25T21:15:11.666Z,20.37
2022-12-25T21:20:37.203Z,20.38
2022-12-25T21:25:58.910Z,20.34
2022-12-25T21:31:21.382Z,20.32
2022-12-25T21:36:43.221Z,20.30
2022-12-25T21:42:05.567Z,20.28
2022-12-25T21:47:27.273Z,20.26
2022-12-25T21:53:09.353Z,20.24
2022-12-25T21:58:31.315Z,20.22
2022-12-25T22:03:53.023Z,20.21
2022-12-25T22:09:15.015Z,20.19
2022-12-25T22:14:55.433Z,20.19
2022-12-25T22:20:24.216Z,20.18
2022-12-25T22:25:45.918Z,20.13
2022-12-25T22:31:07.886Z,20.09
2022-12-25T22:36:29.635Z,20.05
2022-12-25T22:41:51.393Z,20.00
2022-12-25T22:47:13.134Z,19.97
2022-12-25T22:52:35.028Z,19.94
2022-12-25T22:57:56.834Z,19.90
2022-12-25T23:03:18.604Z,19.88
2022-12-25T23:08:40.405Z,19.83
2022-12-25T23:14:20.987Z,19.76
2022-12-25T23:20:01.024Z,19.67
2022-12-25T23:25:41.683Z,19.63
2022-12-25T23:31:03.718Z,19.61
2022-12-25T23:36:25.943Z,19.58
2022-12-25T23:41:47.950Z,19.55
2022-12-25T23:47:10.053Z,19.53
2022-12-25T23:52:31.912Z,19.51
2022-12-25T23:57:53.686Z,19.48
